createdAt,value
2023-09-28T00:01:19.489Z,70.78
2023-09-28T00:04:06.873Z,70.63
2023-09-28T00:06:52.527Z,70.64
2023-09-28T00:09:38.273Z,70.62
2023-09-28T00:12:23.821Z,70.47
2023-09-28T00:15:10.669Z,70.34
2023-09-28T00:17:56.410Z,70.31
2023-09-28T00:20:42.170Z,70.24
2023-09-28T00:23:27.968Z,70.04
2023-09-28T00:26:13.680Z,70.08
2023-09-28T00:29:00.989Z,70.07
2023-09-28T00:31:46.574Z,69.83
2023-09-28T00:34:32.439Z,69.68
2023-09-28T00:37:18.156Z,69.81
2023-09-28T00:40:17.598Z,69.91
2023-09-28T00:43:04.675Z,69.72
2023-09-28T00:45:50.260Z,69.65
2023-09-28T00:48:43.111Z,69.70
2023-09-28T00:51:29.523Z,69.56
2023-09-28T00:54:14.996Z,69.46
2023-09-28T00:57:01.200Z,69.35
2023-09-28T00:59:46.619Z,69.21
2023-09-28T01:02:32.214Z,69.29
2023-09-28T01:05:19.325Z,69.09
2023-09-28T01:08:19.298Z,69.09
2023-09-28T01:11:10.423Z,69.04
2023-09-28T01:13:56.496Z,68.88
2023-09-28T01:16:43.248Z,68.86
2023-09-28T01:19:30.551Z,68.71
2023-09-28T01:22:16.497Z,68.63
2023-09-28T01:25:04.492Z,68.55
2023-09-28T01:27:51.253Z,68.54
2023-09-28T01:30:36.885Z,68.43
2023-09-28T01:33:22.609Z,68.47
2023-09-28T01:36:08.536Z,68.35
2023-09-28T01:39:08.152Z,68.38
2023-09-28T01:41:53.932Z,68.25
2023-09-28T01:44:39.292Z,68.34
2023-09-28T01:47:25.157Z,68.14
2023-09-28T01:50:11.210Z,68.14
2023-09-28T01:52:57.201Z,67.95
2023-09-28T01:55:43.009Z,67.96
2023-09-28T01:58:30.222Z,67.99
2023-09-28T02:01:29.431Z,67.84
2023-09-28T02:04:15.711Z,67.68
2023-09-28T02:07:01.274Z,67.61
2023-09-28T02:09:46.806Z,67.44
2023-09-28T02:12:32.756Z,67.15
2023-09-28T02:15:18.355Z,66.82
2023-09-28T02:18:05.011Z,66.74
2023-09-28T02:20:50.855Z,66.57
2023-09-28T02:23:36.672Z,66.50
2023-09-28T02:26:22.233Z,66.29
2023-09-28T02:29:08.145Z,66.10
2023-09-28T02:31:53.983Z,66.03
2023-09-28T02:34:39.815Z,65.87
2023-09-28T02:37:25.545Z,65.77
2023-09-28T02:40:12.504Z,65.57
2023-09-28T02:42:58.480Z,65.43
2023-09-28T02:45:44.540Z,64.99
2023-09-28T02:48:30.152Z,64.79
2023-09-28T02:51:16.668Z,64.60
2023-09-28T02:54:01.923Z,64.57
2023-09-28T02:56:48.597Z,64.34
2023-09-28T02:59:34.192Z,64.16
2023-09-28T03:02:20.859Z,63.96
2023-09-28T03:05:08.488Z,63.87
2023-09-28T03:07:54.276Z,63.68
2023-09-28T03:10:41.299Z,63.52
2023-09-28T03:13:26.911Z,63.40
2023-09-28T03:16:12.953Z,63.36
2023-09-28T03:18:58.904Z,63.52
2023-09-28T03:21:44.821Z,63.60
2023-09-28T03:24:30.185Z,63.52
2023-09-28T03:27:16.259Z,63.52
2023-09-28T03:30:05.804Z,63.57
2023-09-28T03:32:52.657Z,63.50
2023-09-28T03:35:38.911Z,63.41
2023-09-28T03:38:26.341Z,63.25
2023-09-28T03:41:12.085Z,63.25
2023-09-28T03:43:57.765Z,63.19
2023-09-28T03:46:43.209Z,62.94
2023-09-28T03:49:28.955Z,62.78
2023-09-28T03:52:14.863Z,62.82
2023-09-28T03:55:00.402Z,62.75
2023-09-28T03:57:46.929Z,62.68
2023-09-28T04:00:32.623Z,62.52
2023-09-28T04:03:18.298Z,62.50
2023-09-28T04:06:04.042Z,62.51
2023-09-28T04:08:51.285Z,62.47
2023-09-28T04:11:37.903Z,62.18
2023-09-28T04:14:23.744Z,62.06
2023-09-28T04:17:09.676Z,62.19
2023-09-28T04:19:55.531Z,62.31
2023-09-28T04:22:41.846Z,62.34
2023-09-28T04:25:29.710Z,62.08
2023-09-28T04:28:15.740Z,61.70
2023-09-28T04:31:01.149Z,61.64
2023-09-28T04:33:46.698Z,61.45
2023-09-28T04:36:33.464Z,61.21
2023-09-28T04:39:19.215Z,61.09
2023-09-28T04:42:05.209Z,60.96
2023-09-28T04:44:51.482Z,60.93
2023-09-28T04:47:37.604Z,60.62
2023-09-28T04:50:23.233Z,60.12
2023-09-28T04:53:16.983Z,59.77
2023-09-28T04:56:12.717Z,59.77
2023-09-28T04:59:00.034Z,59.80
2023-09-28T05:01:45.688Z,59.48
2023-09-28T05:04:32.954Z,59.35
2023-09-28T05:07:18.439Z,59.09
2023-09-28T05:10:06.418Z,58.91
2023-09-28T05:12:52.373Z,58.66
2023-09-28T05:15:38.506Z,58.64
2023-09-28T05:19:07.822Z,58.61
2023-09-28T05:22:01.933Z,58.57
2023-09-28T05:24:47.255Z,58.55
2023-09-28T05:27:34.425Z,58.50
2023-09-28T05:30:20.673Z,58.39
2023-09-28T05:33:07.081Z,58.15
2023-09-28T05:35:53.042Z,58.01
2023-09-28T05:38:44.783Z,57.94
2023-09-28T05:41:46.861Z,57.94
2023-09-28T05:45:28.288Z,57.85
2023-09-28T05:48:23.889Z,57.83
2023-09-28T05:51:19.368Z,58.01
2023-09-28T05:54:26.052Z,58.13
2023-09-28T05:57:20.498Z,58.35
2023-09-28T06:00:21.493Z,58.90
2023-09-28T06:03:11.379Z,59.17
2023-09-28T06:05:57.179Z,59.65
2023-09-28T06:08:44.568Z,60.02
2023-09-28T06:11:30.921Z,60.23
2023-09-28T06:14:16.610Z,60.35
2023-09-28T06:17:02.602Z,60.35
2023-09-28T06:19:57.937Z,60.68
2023-09-28T06:22:49.961Z,60.97
2023-09-28T06:25:35.804Z,60.96
2023-09-28T06:28:24.619Z,61.11
2023-09-28T06:31:10.896Z,61.00
2023-09-28T06:33:57.022Z,61.29
2023-09-28T06:36:43.329Z,61.66
2023-09-28T06:39:29.584Z,61.78
2023-09-28T06:42:26.513Z,62.28
2023-09-28T06:45:20.550Z,62.28
2023-09-28T06:48:20.015Z,62.11
2023-09-28T06:51:07.812Z,61.91
2023-09-28T06:53:53.725Z,61.55
2023-09-28T06:56:39.438Z,61.15
2023-09-28T06:59:33.500Z,61.01
2023-09-28T07:02:19.983Z,60.50
2023-09-28T07:05:09.700Z,60.32
2023-09-28T07:07:57.152Z,60.00
2023-09-28T07:10:45.484Z,59.40
2023-09-28T07:13:30.852Z,59.17
2023-09-28T07:16:17.369Z,59.17
2023-09-28T07:19:05.946Z,58.86
2023-09-28T07:22:02.219Z,58.56
2023-09-28T07:24:47.652Z,58.30
2023-09-28T07:27:33.332Z,58.10
2023-09-28T07:30:46.260Z,58.04
2023-09-28T07:33:33.221Z,57.72
2023-09-28T07:36:20.225Z,57.18
2023-09-28T07:39:06.199Z,57.14
2023-09-28T07:41:52.271Z,56.73
2023-09-28T07:44:40.836Z,56.45
2023-09-28T07:47:26.661Z,55.83
2023-09-28T07:50:15.236Z,55.52
2023-09-28T07:53:31.314Z,55.71
2023-09-28T08:04:09.564Z,55.43
2023-09-28T08:06:55.884Z,55.10
2023-09-28T08:09:43.070Z,54.84
2023-09-28T08:12:28.885Z,54.39
2023-09-28T08:15:26.977Z,54.08
2023-09-28T08:18:22.157Z,53.78
2023-09-28T08:21:11.152Z,53.67
2023-09-28T08:23:57.159Z,53.14
2023-09-28T08:26:43.121Z,52.88
2023-09-28T08:29:29.070Z,52.82
2023-09-28T08:32:14.787Z,52.20
2023-09-28T08:39:04.380Z,51.34
2023-09-28T08:46:13.603Z,50.87
2023-09-28T08:49:09.496Z,50.46
2023-09-28T08:51:57.632Z,50.43
2023-09-28T08:54:51.514Z,50.08
2023-09-28T08:57:42.714Z,49.67
2023-09-28T09:00:41.906Z,49.50
2023-09-28T09:04:15.967Z,49.08
2023-09-28T09:07:05.051Z,48.78
2023-09-28T09:10:26.380Z,48.29
2023-09-28T09:13:17.348Z,48.29
2023-09-28T09:16:03.723Z,47.91
2023-09-28T09:18:50.429Z,47.57
2023-09-28T09:21:41.587Z,47.70
2023-09-28T09:24:27.290Z,47.34
2023-09-28T09:27:12.925Z,46.79
2023-09-28T09:30:08.775Z,46.15
2023-09-28T09:32:59.027Z,46.18
2023-09-28T09:35:44.945Z,45.70
2023-09-28T09:38:37.571Z,45.39
2023-09-28T09:41:46.099Z,45.38
2023-09-28T09:44:35.396Z,44.99
2023-09-28T09:47:21.467Z,44.78
2023-09-28T09:50:08.399Z,44.37
2023-09-28T09:52:56.957Z,44.20
2023-09-28T09:55:47.627Z,44.14
2023-09-28T09:58:42.784Z,43.75
2023-09-28T10:01:29.638Z,43.39
2023-09-28T10:04:17.329Z,43.15
2023-09-28T10:07:05.243Z,42.34
2023-09-28T10:09:52.376Z,42.14
2023-09-28T10:12:39.079Z,42.06
2023-09-28T10:15:26.792Z,41.53
2023-09-28T10:18:14.641Z,41.32
2023-09-28T10:21:03.262Z,41.57
2023-09-28T10:23:48.893Z,41.26
2023-09-28T10:26:35.994Z,40.51
2023-09-28T10:29:28.853Z,40.09
2023-09-28T10:32:30.754Z,39.81
2023-09-28T10:35:27.514Z,39.34
2023-09-28T10:38:22.172Z,38.99
2023-09-28T10:45:04.526Z,38.85
2023-09-28T10:47:59.190Z,38.55
2023-09-28T10:50:47.194Z,38.55
2023-09-28T10:53:33.110Z,38.52
2023-09-28T10:56:18.846Z,37.74
2023-09-28T10:59:07.338Z,37.15
2023-09-28T11:01:53.073Z,37.08
2023-09-28T11:04:50.950Z,36.93
2023-09-28T11:07:38.958Z,36.54
2023-09-28T11:10:25.816Z,35.83
2023-09-28T11:13:16.402Z,35.59
2023-09-28T11:16:02.396Z,35.52
2023-09-28T11:18:50.349Z,35.24
2023-09-28T11:21:35.874Z,35.02
2023-09-28T11:24:23.702Z,34.91
2023-09-28T11:27:09.337Z,34.60
2023-09-28T11:29:58.724Z,34.55
2023-09-28T11:32:52.551Z,34.31
2023-09-28T11:35:39.276Z,33.76
2023-09-28T11:38:24.847Z,32.94
2023-09-28T11:41:14.417Z,32.52
2023-09-28T11:44:00.269Z,31.72
2023-09-28T11:46:47.395Z,31.32
2023-09-28T11:49:38.364Z,30.92
2023-09-28T11:55:40.565Z,30.08
2023-09-28T11:58:29.092Z,29.84
2023-09-28T12:01:15.120Z,29.44
2023-09-28T12:04:00.822Z,28.96
2023-09-28T12:06:46.768Z,28.43
2023-09-28T12:09:34.775Z,27.83
2023-09-28T12:12:21.041Z,26.71
2023-09-28T12:15:11.506Z,26.70
2023-09-28T12:17:56.950Z,26.40
2023-09-28T12:20:44.624Z,25.60
2023-09-28T12:23:30.954Z,25.16
2023-09-28T12:26:17.065Z,25.00
2023-09-28T12:29:02.773Z,24.93
2023-09-28T12:31:48.600Z,26.38
2023-09-28T12:34:34.194Z,26.76
2023-09-28T12:37:19.964Z,27.09
2023-09-28T12:40:15.186Z,24.78
2023-09-28T12:43:13.563Z,24.46
2023-09-28T12:45:59.563Z,24.00
2023-09-28T12:48:45.223Z,24.10
2023-09-28T12:51:31.415Z,23.06
2023-09-28T12:54:20.865Z,23.13
2023-09-28T12:57:08.390Z,22.53
2023-09-28T12:59:54.026Z,21.97
2023-09-28T13:02:40.163Z,22.58
2023-09-28T13:05:26.480Z,22.19
2023-09-28T13:08:14.701Z,21.60
2023-09-28T13:11:00.891Z,21.72
2023-09-28T13:13:47.271Z,21.24
2023-09-28T13:16:34.176Z,21.44
2023-09-28T13:19:20.265Z,21.77
2023-09-28T13:22:05.927Z,22.08
2023-09-28T13:24:53.791Z,23.02
2023-09-28T13:27:39.848Z,23.37
2023-09-28T13:30:29.774Z,23.61
2023-09-28T13:33:15.492Z,24.67
2023-09-28T13:36:06.399Z,25.57
2023-09-28T13:38:52.210Z,25.77
2023-09-28T13:41:39.729Z,26.18
2023-09-28T13:44:26.203Z,27.19
2023-09-28T13:47:12.257Z,27.55
2023-09-28T13:49:57.679Z,28.82
2023-09-28T13:52:46.508Z,29.66
2023-09-28T13:55:34.092Z,30.44
2023-09-28T13:58:20.955Z,31.42
2023-09-28T14:01:10.974Z,32.11
2023-09-28T14:03:56.732Z,32.81
2023-09-28T14:06:42.834Z,33.87
2023-09-28T14:09:31.785Z,33.86
2023-09-28T14:12:17.460Z,34.76
2023-09-28T14:15:07.575Z,35.63
2023-09-28T14:17:56.350Z,36.34
2023-09-28T14:20:42.110Z,36.39
2023-09-28T14:23:27.789Z,35.99
2023-09-28T14:26:13.194Z,35.88
2023-09-28T14:29:00.324Z,35.33
2023-09-28T14:31:45.944Z,35.68
2023-09-28T14:34:31.435Z,35.67
2023-09-28T14:37:18.681Z,34.71
2023-09-28T14:40:15.085Z,34.90
2023-09-28T14:43:03.981Z,34.37
2023-09-28T14:45:49.688Z,32.96
2023-09-28T14:48:35.705Z,32.65
2023-09-28T14:51:21.782Z,33.36
2023-09-28T14:54:07.440Z,34.26
2023-09-28T14:56:53.067Z,34.70
2023-09-28T14:59:39.098Z,34.18
2023-09-28T15:02:25.127Z,33.47
2023-09-28T15:05:11.504Z,33.30
2023-09-28T15:07:57.222Z,33.86
2023-09-28T15:10:43.402Z,34.79
2023-09-28T15:13:29.161Z,35.64
2023-09-28T15:16:15.888Z,36.72
2023-09-28T15:19:01.631Z,37.65
2023-09-28T15:21:47.532Z,37.88
2023-09-28T15:24:34.047Z,37.86
2023-09-28T15:27:19.801Z,37.71
2023-09-28T15:30:05.876Z,37.92
2023-09-28T15:32:51.575Z,38.22
2023-09-28T15:35:38.172Z,38.64
2023-09-28T15:38:24.834Z,39.33
2023-09-28T15:41:33.766Z,39.81
2023-09-28T15:44:20.108Z,40.35
2023-09-28T15:47:06.086Z,40.77
2023-09-28T15:49:53.718Z,41.05
2023-09-28T15:52:39.693Z,41.30
2023-09-28T15:55:25.536Z,41.63
2023-09-28T15:58:10.777Z,41.69
2023-09-28T16:00:56.427Z,41.65
2023-09-28T16:03:42.632Z,42.03
2023-09-28T16:06:28.422Z,42.25
2023-09-28T16:09:15.010Z,42.47
2023-09-28T16:12:01.396Z,42.82
2023-09-28T16:15:08.672Z,43.52
2023-09-28T16:18:26.229Z,44.47
2023-09-28T16:21:14.727Z,44.95
2023-09-28T16:24:00.321Z,44.92
2023-09-28T16:26:47.418Z,45.18
2023-09-28T16:29:36.443Z,45.47
2023-09-28T16:32:22.741Z,45.92
2023-09-28T16:35:56.648Z,45.35
2023-09-28T16:38:43.818Z,44.83
2023-09-28T16:41:43.425Z,44.21
2023-09-28T16:52:25.340Z,42.89
2023-09-28T16:59:08.781Z,42.46
2023-09-28T17:01:56.487Z,42.09
2023-09-28T17:04:42.245Z,41.64
2023-09-28T17:07:30.373Z,41.10
2023-09-28T17:10:24.940Z,40.75
2023-09-28T17:17:15.409Z,39.58
2023-09-28T17:20:00.858Z,39.28
2023-09-28T17:22:46.782Z,38.96
2023-09-28T17:25:35.142Z,38.74
2023-09-28T17:28:21.574Z,38.56
2023-09-28T17:31:07.876Z,38.42
2023-09-28T17:33:53.690Z,38.30
2023-09-28T17:36:55.911Z,38.40
2023-09-28T17:39:56.924Z,37.94
2023-09-28T17:43:22.521Z,37.29
2023-09-28T17:53:55.538Z,35.91
2023-09-28T17:56:43.682Z,35.74
2023-09-28T17:59:54.292Z,35.52
2023-09-28T18:08:08.001Z,35.57
2023-09-28T18:11:14.822Z,35.85
2023-09-28T18:18:22.332Z,36.39
2023-09-28T18:25:40.035Z,38.16
2023-09-28T18:28:36.048Z,38.75
2023-09-28T18:34:36.032Z,39.58
2023-09-28T18:37:22.256Z,40.26
2023-09-28T18:40:08.900Z,41.08
2023-09-28T18:43:17.901Z,42.13
2023-09-28T18:46:04.290Z,42.86
2023-09-28T18:48:50.716Z,43.46
2023-09-28T18:51:36.844Z,43.71
2023-09-28T18:54:23.033Z,43.81
2023-09-28T18:57:08.837Z,44.08
2023-09-28T18:59:54.388Z,44.55
2023-09-28T19:02:40.472Z,45.34
2023-09-28T19:05:26.353Z,46.09
2023-09-28T19:08:12.028Z,46.92
2023-09-28T19:10:58.319Z,47.33
2023-09-28T19:13:45.337Z,47.69
2023-09-28T19:16:31.064Z,48.35
2023-09-28T19:19:42.006Z,48.98
2023-09-28T19:22:29.007Z,49.35
2023-09-28T19:25:16.248Z,50.44
2023-09-28T19:28:01.854Z,50.90
2023-09-28T19:30:47.971Z,51.22
2023-09-28T19:33:33.880Z,51.14
2023-09-28T19:36:19.678Z,51.07
2023-09-28T19:39:05.603Z,50.92
2023-09-28T19:41:52.032Z,50.94
2023-09-28T19:44:39.250Z,50.88
2023-09-28T19:47:24.896Z,51.06
2023-09-28T19:50:10.603Z,51.38
2023-09-28T19:52:56.129Z,51.52
2023-09-28T19:55:41.973Z,51.57
2023-09-28T19:58:27.713Z,51.76
2023-09-28T20:01:13.720Z,52.10
2023-09-28T20:03:59.746Z,52.53
2023-09-28T20:06:45.534Z,52.86
2023-09-28T20:09:32.693Z,52.91
2023-09-28T20:12:19.144Z,53.11
2023-09-28T20:15:07.274Z,53.25
2023-09-28T20:17:54.215Z,53.56
2023-09-28T20:20:40.088Z,54.01
2023-09-28T20:23:25.741Z,54.19
2023-09-28T20:26:11.406Z,54.77
2023-09-28T20:28:56.874Z,55.15
2023-09-28T20:31:42.377Z,55.36
2023-09-28T20:34:28.464Z,55.68
2023-09-28T20:37:14.084Z,55.76
2023-09-28T20:39:59.960Z,56.01
2023-09-28T20:42:45.864Z,56.17
2023-09-28T20:45:32.284Z,56.48
2023-09-28T20:48:18.351Z,56.64
2023-09-28T20:51:04.211Z,56.56
2023-09-28T20:53:49.672Z,56.77
2023-09-28T20:56:35.488Z,57.26
2023-09-28T20:59:20.966Z,57.21
2023-09-28T21:02:07.331Z,57.73
2023-09-28T21:04:52.980Z,57.83
2023-09-28T21:07:44.807Z,58.08
2023-09-28T21:10:31.426Z,58.19
2023-09-28T21:13:17.063Z,58.49
2023-09-28T21:16:03.245Z,58.68
2023-09-28T21:18:48.932Z,58.99
2023-09-28T21:21:34.808Z,59.25
2023-09-28T21:24:25.184Z,59.18
2023-09-28T21:27:11.386Z,59.36
2023-09-28T21:29:57.552Z,59.63
2023-09-28T21:32:44.644Z,59.67
2023-09-28T21:35:30.520Z,59.90
2023-09-28T21:38:16.574Z,60.23
2023-09-28T21:41:10.822Z,60.36
2023-09-28T21:43:56.442Z,60.54
2023-09-28T21:46:42.120Z,60.55
2023-09-28T21:49:27.869Z,60.69
2023-09-28T21:52:13.593Z,60.78
2023-09-28T21:54:59.137Z,60.90
2023-09-28T21:57:44.736Z,61.13
2023-09-28T22:00:35.258Z,61.05
2023-09-28T22:03:21.074Z,61.07
2023-09-28T22:06:07.613Z,61.05
2023-09-28T22:08:53.288Z,61.15
2023-09-28T22:11:38.973Z,61.11
2023-09-28T22:14:24.921Z,61.44
2023-09-28T22:17:10.518Z,61.49
2023-09-28T22:19:56.288Z,61.68
2023-09-28T22:22:43.713Z,61.98
2023-09-28T22:25:29.434Z,62.06
2023-09-28T22:28:15.428Z,62.13
2023-09-28T22:31:38.700Z,62.36
2023-09-28T22:38:29.504Z,62.81
2023-09-28T22:41:27.958Z,63.15
2023-09-28T22:48:33.934Z,63.07
2023-09-28T22:51:37.834Z,63.29
2023-09-28T22:54:23.402Z,63.21
2023-09-28T22:57:24.127Z,63.17
2023-09-28T23:04:47.071Z,63.37
2023-09-28T23:08:11.528Z,63.32
2023-09-28T23:11:02.479Z,63.38
2023-09-28T23:13:48.059Z,63.52
2023-09-28T23:16:33.689Z,63.52
2023-09-28T23:19:19.468Z,63.77
2023-09-28T23:22:05.684Z,63.85
2023-09-28T23:24:51.687Z,63.66
2023-09-28T23:27:49.058Z,63.80
2023-09-28T23:30:38.610Z,63.98
2023-09-28T23:33:24.458Z,63.95
2023-09-28T23:36:11.314Z,63.86
2023-09-28T23:38:58.175Z,63.57
2023-09-28T23:41:44.979Z,63.47
2023-09-28T23:44:32.174Z,63.45
2023-09-28T23:47:17.848Z,63.48
2023-09-28T23:50:07.041Z,63.53
2023-09-28T23:52:52.938Z,63.54
2023-09-28T23:55:47.497Z,63.53
2023-09-28T23:58:33.390Z,63.54
